createdAt,value
2018-12-29T00:03:14.935Z,33.90
2018-12-29T00:07:20.033Z,36.97
2018-12-29T00:11:25.492Z,36.17
2018-12-29T00:15:30.663Z,33.73
2018-12-29T00:19:35.869Z,32.80
2018-12-29T00:23:40.842Z,32.93
2018-12-29T00:27:45.887Z,33.63
2018-12-29T00:31:51.413Z,33.90
2018-12-29T00:35:56.542Z,31.97
2018-12-29T00:40:01.462Z,32.17
2018-12-29T00:44:06.561Z,33.13
2018-12-29T00:48:11.670Z,32.53
2018-12-29T00:52:16.728Z,32.30
2018-12-29T00:56:21.721Z,32.60
2018-12-29T01:00:26.736Z,31.43
2018-12-29T01:04:31.808Z,31.23
2018-12-29T01:08:37.213Z,29.23
2018-12-29T01:12:42.274Z,32.53
2018-12-29T01:16:47.401Z,30.10
2018-12-29T01:20:52.430Z,31.33
2018-12-29T01:24:57.577Z,30.40
2018-12-29T01:29:02.749Z,31.23
2018-12-29T01:33:07.797Z,29.07
2018-12-29T01:37:12.932Z,29.13
2018-12-29T01:41:18.033Z,29.87
2018-12-29T01:45:23.121Z,29.70
2018-12-29T01:49:28.221Z,28.57
2018-12-29T01:53:33.550Z,28.33
2018-12-29T01:57:57.545Z,28.20
2018-12-29T02:02:02.725Z,28.73
2018-12-29T02:06:07.627Z,29.83
2018-12-29T02:10:12.650Z,29.20
2018-12-29T02:14:17.802Z,28.47
2018-12-29T02:18:22.898Z,29.03
2018-12-29T02:22:28.019Z,28.63
2018-12-29T02:26:33.064Z,27.23
2018-12-29T02:30:38.230Z,27.40
2018-12-29T02:34:43.249Z,29.37
2018-12-29T02:38:48.406Z,30.00
2018-12-29T02:42:53.501Z,29.80
2018-12-29T02:46:58.603Z,30.00
2018-12-29T02:51:03.693Z,29.63
2018-12-29T02:55:08.758Z,32.17
2018-12-29T02:59:13.861Z,31.20
2018-12-29T03:03:18.913Z,30.20
2018-12-29T03:07:23.986Z,32.50
2018-12-29T03:11:29.060Z,33.10
2018-12-29T03:15:40.900Z,34.77
2018-12-29T03:19:46.016Z,35.03
2018-12-29T03:23:51.077Z,33.83
2018-12-29T03:27:56.164Z,37.63
2018-12-29T03:32:01.248Z,35.07
2018-12-29T03:36:06.276Z,39.57
2018-12-29T03:40:11.427Z,37.63
2018-12-29T03:44:16.519Z,36.03
2018-12-29T03:48:21.577Z,37.13
2018-12-29T03:52:26.632Z,38.10
2018-12-29T03:56:31.662Z,36.77
2018-12-29T04:00:37.035Z,38.03
2018-12-29T04:04:42.121Z,36.53
2018-12-29T04:09:25.379Z,37.40
2018-12-29T04:13:30.430Z,40.87
2018-12-29T04:17:35.495Z,41.20
2018-12-29T04:21:40.536Z,40.40
2018-12-29T04:25:45.607Z,40.73
2018-12-29T04:29:50.687Z,38.33
2018-12-29T04:33:55.761Z,39.43
2018-12-29T04:38:00.846Z,42.17
2018-12-29T04:42:05.893Z,41.73
2018-12-29T04:46:11.028Z,44.23
2018-12-29T04:50:16.101Z,40.23
2018-12-29T04:54:21.203Z,41.87
2018-12-29T04:58:26.253Z,41.87
2018-12-29T05:02:31.288Z,38.53
2018-12-29T05:06:36.447Z,39.87
2018-12-29T05:10:41.425Z,40.80
2018-12-29T05:14:46.497Z,42.77
2018-12-29T05:18:51.550Z,38.73
2018-12-29T05:22:56.602Z,39.50
2018-12-29T05:27:01.654Z,42.27
2018-12-29T05:31:06.656Z,40.47
2018-12-29T05:35:11.701Z,44.80
2018-12-29T05:39:17.009Z,39.83
2018-12-29T05:43:22.136Z,39.70
2018-12-29T05:47:27.120Z,39.83
2018-12-29T05:51:32.479Z,37.57
2018-12-29T05:55:37.888Z,39.57
2018-12-29T05:59:42.867Z,40.20
2018-12-29T06:03:47.922Z,43.27
2018-12-29T06:07:53.529Z,42.73
2018-12-29T06:12:00.179Z,38.83
2018-12-29T06:16:05.299Z,44.67
2018-12-29T06:20:10.427Z,43.97
2018-12-29T06:24:15.463Z,38.03
2018-12-29T06:28:20.470Z,39.73
2018-12-29T06:32:26.092Z,39.97
2018-12-29T06:36:31.300Z,39.30
2018-12-29T06:40:36.343Z,38.20
2018-12-29T06:44:41.404Z,39.43
2018-12-29T06:48:46.379Z,41.87
2018-12-29T06:52:51.427Z,41.47
2018-12-29T06:56:56.404Z,38.37
2018-12-29T07:01:01.484Z,38.50
2018-12-29T07:05:06.556Z,38.00
2018-12-29T07:09:11.603Z,39.57
2018-12-29T07:13:18.798Z,40.23
2018-12-29T07:17:24.352Z,42.13
2018-12-29T07:21:29.412Z,39.23
2018-12-29T07:25:34.681Z,38.57
2018-12-29T07:29:39.748Z,40.77
2018-12-29T07:33:44.858Z,38.23
2018-12-29T07:37:49.880Z,41.63
2018-12-29T07:41:54.892Z,41.70
2018-12-29T07:45:59.907Z,39.17
2018-12-29T07:50:05.001Z,42.37
2018-12-29T07:54:10.350Z,36.73
2018-12-29T07:58:15.416Z,38.27
2018-12-29T08:02:20.612Z,38.63
2018-12-29T08:06:25.648Z,34.67
2018-12-29T08:10:30.950Z,37.63
2018-12-29T08:14:35.994Z,36.90
2018-12-29T08:18:40.985Z,36.57
2018-12-29T08:22:46.043Z,36.97
2018-12-29T08:26:51.016Z,35.00
2018-12-29T08:30:56.413Z,37.03
2018-12-29T08:35:01.466Z,35.03
2018-12-29T08:39:07.409Z,34.63
2018-12-29T08:43:12.406Z,35.63
2018-12-29T08:47:17.698Z,33.77
2018-12-29T08:51:22.685Z,35.63
2018-12-29T08:55:27.824Z,31.63
2018-12-29T08:59:32.823Z,32.77
2018-12-29T09:03:37.806Z,33.27
2018-12-29T09:07:42.898Z,33.83
2018-12-29T09:11:48.039Z,33.30
2018-12-29T09:15:53.105Z,32.33
2018-12-29T09:19:58.403Z,33.03
2018-12-29T09:24:03.755Z,31.23
2018-12-29T09:28:08.712Z,32.80
2018-12-29T09:32:13.818Z,33.37
2018-12-29T09:36:18.909Z,32.97
2018-12-29T09:40:23.974Z,32.73
2018-12-29T09:44:29.119Z,33.67
2018-12-29T09:48:34.251Z,33.60
2018-12-29T09:52:39.704Z,32.90
2018-12-29T09:56:44.895Z,33.73
2018-12-29T10:00:50.013Z,32.93
2018-12-29T10:04:55.502Z,33.43
2018-12-29T10:09:00.571Z,35.00
2018-12-29T10:13:05.739Z,31.30
2018-12-29T10:17:10.808Z,33.57
2018-12-29T10:21:15.879Z,33.13
2018-12-29T10:25:20.944Z,32.47
2018-12-29T10:29:26.024Z,32.53
2018-12-29T10:33:31.096Z,31.03
2018-12-29T10:37:36.168Z,30.43
2018-12-29T10:41:41.142Z,29.47
2018-12-29T10:45:46.206Z,31.87
2018-12-29T10:49:51.306Z,30.27
2018-12-29T10:53:56.450Z,32.03
2018-12-29T10:58:01.506Z,31.27
2018-12-29T11:02:06.638Z,29.93
2018-12-29T11:06:11.825Z,29.57
2018-12-29T11:10:16.916Z,27.83
2018-12-29T11:14:21.982Z,27.37
2018-12-29T11:18:27.029Z,25.97
2018-12-29T11:22:32.225Z,26.00
2018-12-29T11:26:37.308Z,25.40
2018-12-29T11:30:52.202Z,25.67
2018-12-29T11:34:57.225Z,26.70
2018-12-29T11:39:02.292Z,26.57
2018-12-29T11:43:07.363Z,26.63
2018-12-29T11:47:12.418Z,25.37
2018-12-29T11:51:17.486Z,25.27
2018-12-29T11:55:22.858Z,24.17
2018-12-29T11:59:28.206Z,23.90
2018-12-29T12:03:33.263Z,25.13
2018-12-29T12:07:38.487Z,24.53
2018-12-29T12:11:44.387Z,24.50
2018-12-29T12:15:49.353Z,24.70
2018-12-29T12:19:54.447Z,25.13
2018-12-29T12:23:59.466Z,26.17
2018-12-29T12:28:04.541Z,23.97
2018-12-29T12:32:09.609Z,25.20
2018-12-29T12:36:14.557Z,25.03
2018-12-29T12:40:19.649Z,24.37
2018-12-29T12:44:24.648Z,24.47
2018-12-29T12:48:29.777Z,25.17
2018-12-29T12:52:35.141Z,26.97
2018-12-29T12:56:40.267Z,37.60
2018-12-29T13:00:45.492Z,31.13
2018-12-29T13:04:50.954Z,25.13
2018-12-29T13:08:56.055Z,25.30
2018-12-29T13:13:01.487Z,22.13
2018-12-29T13:17:06.637Z,22.87
2018-12-29T13:21:11.718Z,23.93
2018-12-29T13:25:16.808Z,23.83
2018-12-29T13:29:21.869Z,24.20
2018-12-29T13:33:26.879Z,23.60
2018-12-29T13:37:32.837Z,21.00
2018-12-29T13:45:54.861Z,19.83
2018-12-29T13:49:59.951Z,20.47
2018-12-29T13:54:05.083Z,22.30
2018-12-29T13:58:10.125Z,20.47
2018-12-29T14:02:15.314Z,21.00
2018-12-29T14:06:20.513Z,24.87
2018-12-29T14:10:25.766Z,19.37
2018-12-29T14:14:30.890Z,20.47
2018-12-29T14:18:35.998Z,19.53
2018-12-29T14:22:41.472Z,20.57
2018-12-29T14:26:46.589Z,18.13
2018-12-29T14:30:51.669Z,18.43
2018-12-29T14:34:56.770Z,18.47
2018-12-29T14:39:01.817Z,18.67
2018-12-29T14:43:06.802Z,19.30
2018-12-29T14:47:12.205Z,17.47
2018-12-29T14:51:17.278Z,17.30
2018-12-29T14:55:22.650Z,17.67
2018-12-29T14:59:27.841Z,16.63
2018-12-29T15:03:32.901Z,17.47
2018-12-29T15:07:37.983Z,16.57
2018-12-29T15:11:43.065Z,16.93
2018-12-29T15:15:48.061Z,16.00
2018-12-29T15:19:53.353Z,20.60
2018-12-29T15:23:58.354Z,19.00
2018-12-29T15:28:03.406Z,19.10
2018-12-29T15:32:15.594Z,18.87
2018-12-29T15:36:20.708Z,20.80
2018-12-29T15:40:25.775Z,20.70
2018-12-29T15:44:30.865Z,22.33
2018-12-29T15:48:36.245Z,20.13
2018-12-29T15:52:41.301Z,21.10
2018-12-29T15:56:46.314Z,20.33
2018-12-29T16:00:51.395Z,22.60
2018-12-29T16:04:56.506Z,23.17
2018-12-29T16:09:01.589Z,24.13
2018-12-29T16:13:08.500Z,23.63
2018-12-29T16:17:13.426Z,23.30
2018-12-29T16:21:30.663Z,24.13
2018-12-29T16:25:35.786Z,23.43
2018-12-29T16:29:40.775Z,27.23
2018-12-29T16:33:45.731Z,29.40
2018-12-29T16:37:57.969Z,28.70
2018-12-29T16:42:03.029Z,27.50
2018-12-29T16:46:08.005Z,26.83
2018-12-29T16:50:13.162Z,25.73
2018-12-29T16:54:18.152Z,23.77
2018-12-29T16:58:23.161Z,25.47
2018-12-29T17:02:28.789Z,25.03
2018-12-29T17:06:33.796Z,25.50
2018-12-29T17:10:38.785Z,23.67
2018-12-29T17:19:00.886Z,24.93
2018-12-29T17:23:06.002Z,25.27
2018-12-29T17:27:11.286Z,24.67
2018-12-29T17:31:16.322Z,25.83
2018-12-29T17:40:05.926Z,23.57
2018-12-29T17:44:10.954Z,22.60
2018-12-29T17:48:16.057Z,23.57
2018-12-29T17:52:21.178Z,24.77
2018-12-29T17:56:26.240Z,26.00
2018-12-29T18:00:31.417Z,27.17
2018-12-29T18:04:36.798Z,28.97
2018-12-29T18:08:41.971Z,29.93
2018-12-29T18:17:38.439Z,32.43
2018-12-29T18:21:43.471Z,32.27
2018-12-29T18:25:48.529Z,35.53
2018-12-29T18:30:12.983Z,35.00
2018-12-29T18:34:18.010Z,34.77
2018-12-29T18:43:07.181Z,40.57
2018-12-29T18:47:12.645Z,39.73
2018-12-29T18:51:17.753Z,40.43
2018-12-29T18:55:30.113Z,42.33
2018-12-29T18:59:35.110Z,43.67
2018-12-29T19:03:40.235Z,43.77
2018-12-29T19:07:57.120Z,45.20
2018-12-29T19:12:02.213Z,45.37
2018-12-29T19:16:07.554Z,44.77
2018-12-29T19:29:26.348Z,48.40
2018-12-29T19:33:31.595Z,48.00
2018-12-29T19:37:58.125Z,45.20
2018-12-29T19:42:03.196Z,42.30
2018-12-29T19:46:08.580Z,42.17
2018-12-29T19:50:13.617Z,41.97
2018-12-29T19:54:18.689Z,43.07
2018-12-29T19:58:23.751Z,44.43
2018-12-29T20:02:28.785Z,44.60
2018-12-29T20:06:34.053Z,44.50
2018-12-29T20:10:39.051Z,42.00
2018-12-29T20:14:56.019Z,43.73
2018-12-29T20:19:01.021Z,42.77
2018-12-29T20:23:06.155Z,41.57
2018-12-29T20:27:11.411Z,38.33
2018-12-29T20:31:16.424Z,36.70
2018-12-29T20:35:21.611Z,39.77
2018-12-29T20:43:45.413Z,33.00
2018-12-29T20:47:52.236Z,34.97
2018-12-29T20:51:57.191Z,35.67
2018-12-29T20:56:02.302Z,35.43
2018-12-29T21:00:09.057Z,31.13
2018-12-29T21:04:14.045Z,28.97
2018-12-29T21:08:19.030Z,27.10
2018-12-29T21:12:24.095Z,22.97
2018-12-29T21:16:29.103Z,24.03
2018-12-29T21:20:34.092Z,21.80
2018-12-29T21:24:39.193Z,20.13
2018-12-29T21:28:44.382Z,23.17
2018-12-29T21:32:49.785Z,22.57
2018-12-29T21:36:54.834Z,19.80
2018-12-29T21:40:59.931Z,13.40
2018-12-29T21:45:05.155Z,8.13
2018-12-29T21:49:11.206Z,7.37
2018-12-29T21:53:16.347Z,4.67
2018-12-29T21:57:21.357Z,3.17
2018-12-29T22:01:26.499Z,2.73
2018-12-29T22:05:32.294Z,3.07
2018-12-29T22:09:37.369Z,2.70
2018-12-29T22:13:42.312Z,2.63
2018-12-29T22:17:47.324Z,2.73
2018-12-29T22:21:52.420Z,2.97
2018-12-29T22:25:57.501Z,2.13
2018-12-29T22:30:02.628Z,3.03
2018-12-29T22:34:07.748Z,2.23
2018-12-29T22:38:12.800Z,2.53
2018-12-29T22:42:17.809Z,2.40
2018-12-29T22:46:22.919Z,2.30
2018-12-29T22:50:28.003Z,2.60
2018-12-29T22:54:33.056Z,2.90
2018-12-29T22:58:45.372Z,3.07
2018-12-29T23:02:50.404Z,2.97
2018-12-29T23:07:16.489Z,2.33
2018-12-29T23:11:21.553Z,2.30
2018-12-29T23:15:26.615Z,2.17
2018-12-29T23:19:31.671Z,2.70
2018-12-29T23:23:48.529Z,2.43
2018-12-29T23:27:53.581Z,3.10
2018-12-29T23:31:58.580Z,2.93
2018-12-29T23:36:47.907Z,3.43
2018-12-29T23:40:53.200Z,2.73
2018-12-29T23:44:58.441Z,2.40
2018-12-29T23:58:34.963Z,2.80
